Time;durP1;ratioP1;P1;durP2;ratioP2;P2;SDS_P1;SDS_P2;PMS_P1;PMS_P2;Temp;Humidity;BMP_temperature;BMP_pressure;BME280_temperature;BME280_humidity;BME280_pressure;Samples;Min_cycle;Max_cycle;Signal;HPM_P1;HPM_P2
2022/11/23 00:00:29;;;;;;;32.90;20.20;;;7.80;99.90;;;;;;6161957;23;20024;-86
2022/11/23 00:02:59;;;;;;;29.02;18.85;;;7.70;99.90;;;;;;6137464;23;20077;-88
2022/11/23 00:05:27;;;;;;;29.60;18.33;;;7.80;99.90;;;;;;6161842;23;20400;-88
2022/11/23 00:07:53;;;;;;;29.25;17.67;;;7.80;99.90;;;;;;6137312;23;20381;-89
2022/11/23 00:10:22;;;;;;;31.10;18.48;;;7.90;99.90;;;;;;6138635;23;20315;-87
2022/11/23 00:12:47;;;;;;;25.45;16.95;;;7.90;99.90;;;;;;6137100;23;20496;-87
2022/11/23 00:15:14;;;;;;;28.42;18.33;;;7.90;99.90;;;;;;6138559;23;20016;-88
2022/11/23 00:17:48;;;;;;;24.30;16.60;;;7.90;99.90;;;;;;6139495;23;20304;-88
2022/11/23 00:20:14;;;;;;;26.48;17.42;;;7.90;99.90;;;;;;6138412;23;20033;-87
2022/11/23 00:22:40;;;;;;;27.38;17.40;;;8.00;99.90;;;;;;6161469;23;20017;-87
2022/11/23 00:25:06;;;;;;;28.85;17.30;;;7.90;99.90;;;;;;6162035;23;20092;-87
2022/11/23 00:27:31;;;;;;;26.90;15.80;;;7.90;99.90;;;;;;6162608;23;20017;-88
2022/11/23 00:30:00;;;;;;;29.17;16.30;;;8.00;99.90;;;;;;6136892;23;20073;-88
2022/11/23 00:32:29;;;;;;;25.00;16.55;;;8.10;99.90;;;;;;6137226;23;20017;-87
2022/11/23 00:34:54;;;;;;;28.15;16.83;;;8.00;99.90;;;;;;6163086;23;20043;-88
2022/11/23 00:37:20;;;;;;;25.50;16.40;;;8.10;99.90;;;;;;6137095;23;20777;-87
2022/11/23 00:39:45;;;;;;;26.92;15.65;;;8.10;99.90;;;;;;6137786;23;20092;-88
2022/11/23 00:42:11;;;;;;;24.00;16.50;;;8.00;99.90;;;;;;6161460;23;20105;-88
2022/11/23 00:44:39;;;;;;;25.77;16.48;;;8.10;99.90;;;;;;6162573;23;20025;-87
2022/11/23 00:47:05;;;;;;;25.13;16.02;;;8.20;99.90;;;;;;6138007;23;20347;-87
2022/11/23 00:49:31;;;;;;;25.33;16.02;;;8.10;99.90;;;;;;6137245;23;20016;-88
2022/11/23 00:51:56;;;;;;;29.08;16.73;;;8.20;99.90;;;;;;6136108;23;20159;-87
2022/11/23 00:54:22;;;;;;;24.50;15.93;;;8.20;99.90;;;;;;6136450;23;20017;-88
2022/11/23 00:56:48;;;;;;;24.83;15.55;;;8.20;99.90;;;;;;6136477;23;20024;-88
2022/11/23 00:59:13;;;;;;;23.88;15.27;;;8.20;99.90;;;;;;6162947;23;20013;-87
2022/11/23 01:01:39;;;;;;;25.40;15.18;;;8.20;99.90;;;;;;6137480;23;20021;-87
2022/11/23 01:04:08;;;;;;;26.75;16.35;;;8.20;99.90;;;;;;6137242;23;20029;-88
2022/11/23 01:06:37;;;;;;;26.33;15.48;;;8.20;99.90;;;;;;6161430;23;20316;-86
2022/11/23 01:09:12;;;;;;;25.27;15.70;;;8.20;99.90;;;;;;6137638;23;20009;-88
2022/11/23 01:11:38;;;;;;;25.55;15.85;;;8.30;99.90;;;;;;6162128;23;20020;-87
2022/11/23 01:14:04;;;;;;;25.63;15.30;;;8.30;99.90;;;;;;6137273;23;20009;-88
2022/11/23 01:16:33;;;;;;;26.58;15.25;;;8.20;99.90;;;;;;6163026;23;20078;-88
2022/11/23 01:19:05;;;;;;;22.88;14.68;;;8.30;99.90;;;;;;6137660;23;20036;-88
2022/11/23 01:21:32;;;;;;;26.25;15.77;;;8.20;99.90;;;;;;6137096;23;20437;-87
2022/11/23 01:23:58;;;;;;;25.30;15.48;;;8.30;99.90;;;;;;6161878;23;20017;-89
2022/11/23 01:26:24;;;;;;;23.55;15.18;;;8.30;99.90;;;;;;6137646;23;20021;-89
2022/11/23 01:28:50;;;;;;;23.92;15.32;;;8.30;99.90;;;;;;6137796;23;20052;-87
2022/11/23 01:31:26;;;;;;;24.35;15.38;;;8.30;99.90;;;;;;6139093;23;20028;-88
2022/11/23 01:33:59;;;;;;;24.35;15.52;;;8.30;99.90;;;;;;6138112;23;20013;-87
2022/11/23 01:36:27;;;;;;;23.83;15.43;;;8.30;99.90;;;;;;6163086;23;20513;-87
2022/11/23 01:38:53;;;;;;;23.52;15.93;;;8.20;99.90;;;;;;6162703;23;20017;-88
2022/11/23 01:41:22;;;;;;;21.30;15.20;;;8.30;99.90;;;;;;6137931;23;20100;-87
2022/11/23 01:43:48;;;;;;;24.55;15.00;;;8.40;99.90;;;;;;6137178;23;20341;-87
2022/11/23 01:46:14;;;;;;;25.40;14.90;;;8.30;99.90;;;;;;6136630;23;20044;-88
2022/11/23 01:49:04;;;;;;;23.92;15.23;;;8.30;99.90;;;;;;6137558;23;20331;-89
2022/11/23 01:51:37;;;;;;;24.48;14.90;;;8.40;99.90;;;;;;6136266;23;20099;-87
2022/11/23 01:54:20;;;;;;;29.67;15.27;;;8.30;99.90;;;;;;6136260;23;20354;-89
2022/11/23 01:56:50;;;;;;;22.35;15.75;;;8.40;99.90;;;;;;6162187;23;20049;-88
2022/11/23 01:59:17;;;;;;;24.17;15.68;;;8.40;99.90;;;;;;6162624;23;20052;-88
2022/11/23 02:01:43;;;;;;;25.95;16.38;;;8.40;99.90;;;;;;6138286;23;20362;-88
2022/11/23 02:04:15;;;;;;;24.30;15.82;;;8.30;99.90;;;;;;6136722;23;20613;-88
2022/11/23 02:06:43;;;;;;;28.15;16.25;;;8.30;99.90;;;;;;6161827;23;20017;-89
2022/11/23 02:09:15;;;;;;;27.52;16.45;;;8.40;99.90;;;;;;6161965;23;20009;-88
2022/11/23 02:11:40;;;;;;;24.95;16.70;;;8.30;99.90;;;;;;6137579;23;20522;-88
2022/11/23 02:14:06;;;;;;;27.40;17.05;;;8.40;99.90;;;;;;6137866;23;20433;-88
2022/11/23 02:16:32;;;;;;;27.30;16.33;;;8.40;99.90;;;;;;6138077;23;20017;-87
2022/11/23 02:18:58;;;;;;;27.10;16.23;;;8.40;99.90;;;;;;6136843;23;20082;-88
2022/11/23 02:21:24;;;;;;;24.52;15.45;;;8.30;99.90;;;;;;6136343;23;20412;-88
2022/11/23 02:24:13;;;;;;;24.00;16.55;;;8.30;99.90;;;;;;6136487;23;20021;-89
2022/11/23 02:26:39;;;;;;;25.48;16.50;;;8.40;99.90;;;;;;6136644;23;20016;-88
2022/11/23 02:29:20;;;;;;;24.50;16.13;;;8.30;99.90;;;;;;6161665;23;20243;-88
2022/11/23 02:31:46;;;;;;;26.75;16.13;;;8.40;99.90;;;;;;6138338;23;20446;-88
2022/11/23 02:34:12;;;;;;;27.63;16.70;;;8.40;99.90;;;;;;6137279;23;20023;-89
2022/11/23 02:36:55;;;;;;;28.13;16.02;;;8.40;99.90;;;;;;6136377;23;20416;-87
2022/11/23 02:39:50;;;;;;;26.33;16.63;;;8.40;99.90;;;;;;6137262;23;20027;-88
2022/11/23 02:42:16;;;;;;;29.90;16.65;;;8.40;99.90;;;;;;6189064;23;20017;-88
2022/11/23 02:44:54;;;;;;;27.58;17.45;;;8.30;99.90;;;;;;6136081;23;20020;-88
2022/11/23 02:47:20;;;;;;;25.38;16.15;;;8.40;99.90;;;;;;6137008;23;20100;-88
2022/11/23 02:49:48;;;;;;;27.35;16.00;;;8.40;99.90;;;;;;6161162;23;20048;-89
2022/11/23 02:52:14;;;;;;;29.98;16.15;;;8.40;99.90;;;;;;6160915;23;20077;-87
2022/11/23 02:54:43;;;;;;;27.27;17.45;;;8.40;99.90;;;;;;6135597;23;20017;-87
2022/11/23 02:57:08;;;;;;;25.38;15.70;;;8.40;99.90;;;;;;6137552;23;20251;-88
2022/11/23 02:59:34;;;;;;;24.15;14.85;;;8.40;99.90;;;;;;6161428;23;20024;-87
2022/11/23 03:02:02;;;;;;;24.52;15.63;;;8.40;99.90;;;;;;6137028;23;20116;-87
2022/11/23 03:04:27;;;;;;;22.38;14.70;;;8.40;99.90;;;;;;6160273;23;20062;-87
2022/11/23 03:06:53;;;;;;;24.55;15.80;;;8.50;99.90;;;;;;6135540;23;20024;-88
2022/11/23 03:09:19;;;;;;;22.27;14.65;;;8.40;99.90;;;;;;6136313;23;20040;-86
2022/11/23 03:11:44;;;;;;;25.95;14.63;;;8.40;99.90;;;;;;6136187;23;20009;-87
2022/11/23 03:14:10;;;;;;;23.08;13.85;;;8.40;99.90;;;;;;6162477;23;20012;-88
2022/11/23 03:16:36;;;;;;;23.80;14.50;;;8.40;99.90;;;;;;6137756;23;20438;-87
2022/11/23 03:19:02;;;;;;;20.45;14.55;;;8.50;99.90;;;;;;6136918;23;20340;-88
2022/11/23 03:21:28;;;;;;;20.42;14.55;;;8.50;99.90;;;;;;6135693;23;20738;-89
2022/11/23 03:23:54;;;;;;;25.38;14.90;;;8.50;99.90;;;;;;6137799;23;20059;-88
2022/11/23 03:26:20;;;;;;;26.27;15.32;;;8.40;99.90;;;;;;6136375;23;20055;-88
2022/11/23 03:28:45;;;;;;;24.85;15.93;;;8.50;99.90;;;;;;6161898;23;20013;-88
2022/11/23 03:31:11;;;;;;;22.30;14.02;;;8.50;99.90;;;;;;6137357;23;20078;-87
2022/11/23 03:33:37;;;;;;;25.33;15.13;;;8.50;99.90;;;;;;6161704;23;20040;-87
2022/11/23 03:36:03;;;;;;;24.73;15.65;;;8.50;99.90;;;;;;6134303;23;20454;-87
2022/11/23 03:38:32;;;;;;;27.92;15.45;;;8.60;99.90;;;;;;6134567;23;20071;-88
2022/11/23 03:40:57;;;;;;;25.88;15.10;;;8.50;99.90;;;;;;6138194;22;20254;-88
2022/11/23 03:43:23;;;;;;;25.52;15.10;;;8.60;99.90;;;;;;6135832;23;20013;-87
2022/11/23 03:45:49;;;;;;;28.40;15.95;;;8.60;99.90;;;;;;6137744;23;20256;-88
2022/11/23 03:48:15;;;;;;;26.05;15.95;;;8.60;99.90;;;;;;6135969;23;20009;-88
2022/11/23 03:50:41;;;;;;;26.90;16.27;;;8.60;99.90;;;;;;6139070;23;20092;-88
2022/11/23 03:53:07;;;;;;;32.90;16.92;;;8.60;99.90;;;;;;6137182;23;20100;-88
2022/11/23 03:55:32;;;;;;;31.40;16.23;;;8.60;99.90;;;;;;6139917;23;20020;-87
2022/11/23 03:57:59;;;;;;;29.67;16.90;;;8.50;99.90;;;;;;6136918;23;20029;-87
2022/11/23 04:00:26;;;;;;;28.92;16.77;;;8.50;99.90;;;;;;6139398;23;20024;-88
2022/11/23 04:02:52;;;;;;;31.13;16.92;;;8.50;99.90;;;;;;6138376;23;20044;-88
2022/11/23 04:05:17;;;;;;;34.20;17.42;;;8.50;99.90;;;;;;6163895;23;20024;-88
2022/11/23 04:07:46;;;;;;;35.97;17.75;;;8.50;99.90;;;;;;6138064;23;20059;-88
2022/11/23 04:10:16;;;;;;;33.05;17.25;;;8.50;99.90;;;;;;6138704;23;20020;-88
2022/11/23 04:12:41;;;;;;;37.05;18.13;;;8.40;99.90;;;;;;6136685;23;20017;-87
2022/11/23 04:15:07;;;;;;;35.33;18.52;;;8.40;99.90;;;;;;6137025;23;20069;-88
2022/11/23 04:17:33;;;;;;;32.03;17.35;;;8.50;99.90;;;;;;6162396;23;20186;-88
2022/11/23 04:19:59;;;;;;;37.75;19.02;;;8.40;99.90;;;;;;6136354;23;20190;-87
2022/11/23 04:22:24;;;;;;;32.90;18.45;;;8.50;99.90;;;;;;6136127;23;20453;-87
2022/11/23 04:24:50;;;;;;;38.97;20.05;;;8.40;99.90;;;;;;6137125;23;20045;-89
2022/11/23 04:27:16;;;;;;;35.08;19.05;;;8.40;99.90;;;;;;6161447;23;20408;-88
2022/11/23 04:29:44;;;;;;;39.08;19.67;;;8.40;99.90;;;;;;6138169;23;20476;-89
2022/11/23 04:32:10;;;;;;;36.25;19.75;;;8.50;99.90;;;;;;6138135;23;20051;-88
2022/11/23 04:34:36;;;;;;;39.13;20.42;;;8.40;99.90;;;;;;6136775;23;20012;-88
2022/11/23 04:37:01;;;;;;;33.92;19.65;;;8.50;99.90;;;;;;6137876;22;20013;-88
2022/11/23 04:39:27;;;;;;;38.10;19.58;;;8.50;99.90;;;;;;6137415;23;20081;-88
2022/11/23 04:41:53;;;;;;;34.28;19.63;;;8.50;99.90;;;;;;6138035;23;20024;-88
2022/11/23 04:44:20;;;;;;;38.13;19.95;;;8.50;99.90;;;;;;6137744;23;20016;-88
2022/11/23 04:46:49;;;;;;;40.88;20.90;;;8.50;99.90;;;;;;6138064;23;20021;-88
2022/11/23 04:49:15;;;;;;;36.45;20.10;;;8.50;99.90;;;;;;6137500;23;20079;-88
2022/11/23 04:51:40;;;;;;;38.95;21.05;;;8.50;99.90;;;;;;6136426;23;20016;-88
2022/11/23 04:54:06;;;;;;;41.05;20.95;;;8.50;99.90;;;;;;6162466;23;20040;-88
2022/11/23 04:56:32;;;;;;;40.58;21.02;;;8.50;99.90;;;;;;6136907;23;20516;-87
2022/11/23 04:58:58;;;;;;;40.63;21.52;;;8.50;99.90;;;;;;6138263;23;20075;-87
2022/11/23 05:01:26;;;;;;;43.00;22.98;;;8.50;99.90;;;;;;6137731;23;20113;-89
2022/11/23 05:03:52;;;;;;;43.65;21.70;;;8.50;99.90;;;;;;6138223;23;20021;-87
2022/11/23 05:06:17;;;;;;;42.88;22.35;;;8.50;99.90;;;;;;6161849;23;20017;-88
2022/11/23 05:08:43;;;;;;;47.20;22.90;;;8.50;99.90;;;;;;6136918;23;20094;-89
2022/11/23 05:11:09;;;;;;;49.25;22.23;;;8.50;99.90;;;;;;6137808;23;20410;-88
2022/11/23 05:13:34;;;;;;;42.25;21.95;;;8.50;99.90;;;;;;6162252;23;20350;-88
2022/11/23 05:16:00;;;;;;;40.03;21.35;;;8.60;99.90;;;;;;6162482;23;20135;-86
2022/11/23 05:18:26;;;;;;;38.08;21.83;;;8.50;99.90;;;;;;6138795;23;20024;-87
2022/11/23 05:20:51;;;;;;;45.15;22.33;;;8.50;99.90;;;;;;6138889;23;20012;-87
2022/11/23 05:23:20;;;;;;;44.50;22.40;;;8.60;99.90;;;;;;6136103;23;20074;-89
2022/11/23 05:25:45;;;;;;;41.38;21.25;;;8.60;99.90;;;;;;6137939;23;20120;-88
2022/11/23 05:28:17;;;;;;;39.38;21.75;;;8.60;99.90;;;;;;6136732;23;20430;-88
2022/11/23 05:30:43;;;;;;;40.50;22.30;;;8.60;99.90;;;;;;6137808;23;20086;-88
2022/11/23 05:33:12;;;;;;;41.13;23.02;;;8.70;99.90;;;;;;6137436;23;20013;-88
2022/11/23 05:35:42;;;;;;;40.45;23.13;;;8.60;99.90;;;;;;6137663;23;20030;-89
2022/11/23 05:38:07;;;;;;;42.65;22.02;;;8.70;99.90;;;;;;6161772;23;20039;-88
2022/11/23 05:40:33;;;;;;;40.03;23.33;;;8.70;99.90;;;;;;6139261;23;20029;-88
2022/11/23 05:42:59;;;;;;;40.22;21.92;;;8.70;99.90;;;;;;6138324;23;20028;-88
2022/11/23 05:45:28;;;;;;;38.65;21.98;;;8.70;99.90;;;;;;6140127;23;20036;-88
2022/11/23 05:47:58;;;;;;;35.28;22.83;;;8.70;99.90;;;;;;6138950;23;20309;-87
2022/11/23 05:50:26;;;;;;;44.13;22.00;;;8.70;99.90;;;;;;6138307;23;20347;-88
2022/11/23 05:52:51;;;;;;;36.45;20.45;;;8.70;99.90;;;;;;6136735;23;20045;-88
2022/11/23 05:55:20;;;;;;;38.22;21.35;;;8.70;99.90;;;;;;6161975;23;20520;-88
2022/11/23 05:57:46;;;;;;;38.72;21.65;;;8.70;99.90;;;;;;6137379;23;20013;-89
2022/11/23 06:00:12;;;;;;;34.38;19.13;;;8.70;99.90;;;;;;6137547;23;20422;-88
2022/11/23 06:02:38;;;;;;;35.33;20.38;;;8.70;99.90;;;;;;6138379;23;20029;-88
2022/11/23 06:05:04;;;;;;;38.08;19.73;;;8.60;99.90;;;;;;6162132;23;20120;-89
2022/11/23 06:07:36;;;;;;;35.80;18.83;;;8.60;99.90;;;;;;6161723;23;20342;-89
2022/11/23 06:10:04;;;;;;;33.50;18.70;;;8.60;99.90;;;;;;6137972;23;20507;-88
2022/11/23 06:12:30;;;;;;;31.23;18.15;;;8.60;99.90;;;;;;6137358;23;20044;-88
2022/11/23 06:14:56;;;;;;;35.60;18.10;;;8.50;99.90;;;;;;6162923;23;20078;-88
2022/11/23 06:17:21;;;;;;;32.25;17.70;;;8.60;99.90;;;;;;6138787;23;20085;-88
2022/11/23 06:19:47;;;;;;;28.63;17.13;;;8.50;99.90;;;;;;6136874;23;20036;-88
2022/11/23 06:22:16;;;;;;;31.98;18.15;;;8.50;99.90;;;;;;6138688;23;20191;-88
2022/11/23 06:24:42;;;;;;;26.90;14.10;;;8.50;99.90;;;;;;6137085;23;20021;-88
2022/11/23 06:27:08;;;;;;;27.38;14.05;;;8.50;99.90;;;;;;6138306;23;20021;-88
2022/11/23 06:29:34;;;;;;;25.67;14.70;;;8.50;99.90;;;;;;6139813;23;20036;-87
2022/11/23 06:31:59;;;;;;;30.88;14.18;;;8.40;99.90;;;;;;6166304;23;20457;-88
2022/11/23 06:34:25;;;;;;;25.92;14.85;;;8.50;99.90;;;;;;6141397;23;20446;-89
2022/11/23 06:36:51;;;;;;;25.08;14.07;;;8.50;99.90;;;;;;6139637;23;20084;-88
2022/11/23 06:39:18;;;;;;;28.15;14.82;;;8.40;99.90;;;;;;6166996;23;20363;-88
2022/11/23 06:41:47;;;;;;;27.08;15.32;;;8.40;99.90;;;;;;6140576;23;20407;-89
2022/11/23 06:44:13;;;;;;;24.73;13.65;;;8.40;99.90;;;;;;6165337;22;20112;-88
2022/11/23 06:46:38;;;;;;;25.42;13.00;;;8.40;99.90;;;;;;6166077;23;20023;-88
2022/11/23 06:49:04;;;;;;;27.60;12.60;;;8.30;99.90;;;;;;6141443;23;20116;-87
2022/11/23 06:51:30;;;;;;;23.20;11.90;;;8.30;99.90;;;;;;6189328;23;20579;-88
2022/11/23 06:53:55;;;;;;;27.88;11.48;;;8.30;99.90;;;;;;6140001;23;20020;-88
2022/11/23 06:56:24;;;;;;;23.98;11.30;;;8.30;99.90;;;;;;6139845;23;20013;-87
2022/11/23 06:58:50;;;;;;;23.15;12.40;;;8.30;99.90;;;;;;6139655;23;20556;-88
2022/11/23 07:01:15;;;;;;;24.15;11.15;;;8.30;99.90;;;;;;6139392;23;20058;-89
2022/11/23 07:03:41;;;;;;;20.20;10.48;;;8.20;99.90;;;;;;6138878;23;20029;-88
2022/11/23 07:06:08;;;;;;;19.95;10.20;;;8.20;99.90;;;;;;6139348;23;20478;-88
2022/11/23 07:08:38;;;;;;;18.05;10.50;;;8.20;99.90;;;;;;6163062;23;20439;-88
2022/11/23 07:11:05;;;;;;;25.33;11.68;;;8.10;99.90;;;;;;6139033;23;20016;-88
2022/11/23 07:13:31;;;;;;;18.88;10.95;;;8.20;99.90;;;;;;6163096;23;20028;-88
2022/11/23 07:15:58;;;;;;;19.55;10.38;;;8.20;99.90;;;;;;6139574;23;20112;-87
2022/11/23 07:18:24;;;;;;;20.55;10.38;;;8.10;99.90;;;;;;6163323;23;20454;-87
2022/11/23 07:20:50;;;;;;;20.13;10.10;;;8.10;99.90;;;;;;6137860;23;20040;-88
2022/11/23 07:23:16;;;;;;;16.38;9.73;;;8.20;99.90;;;;;;6135917;23;20100;-89
2022/11/23 07:25:45;;;;;;;20.00;9.02;;;8.10;99.90;;;;;;6164592;23;20020;-87
2022/11/23 07:28:12;;;;;;;16.70;8.68;;;8.10;99.90;;;;;;6161625;23;20013;-88
2022/11/23 07:30:37;;;;;;;18.90;9.48;;;8.10;99.90;;;;;;6164357;23;20017;-88
2022/11/23 07:33:07;;;;;;;19.70;9.35;;;8.20;99.90;;;;;;6138239;23;20532;-88
2022/11/23 07:35:34;;;;;;;15.75;8.77;;;8.20;99.90;;;;;;6138034;23;20024;-88
2022/11/23 07:38:00;;;;;;;16.63;8.57;;;8.20;99.90;;;;;;6137634;23;20017;-86
2022/11/23 07:40:26;;;;;;;21.58;8.75;;;8.20;99.90;;;;;;6138196;22;20023;-88
2022/11/23 07:42:52;;;;;;;17.90;8.82;;;8.30;99.90;;;;;;6137765;23;20013;-87
2022/11/23 07:45:17;;;;;;;16.60;8.05;;;8.20;99.90;;;;;;6138779;22;20024;-87
2022/11/23 07:47:44;;;;;;;16.17;8.52;;;8.30;99.90;;;;;;6138555;23;20096;-87
2022/11/23 07:50:11;;;;;;;18.55;8.70;;;8.30;99.90;;;;;;6138623;23;20013;-88
2022/11/23 07:52:39;;;;;;;16.52;7.75;;;8.30;99.90;;;;;;6163226;23;20013;-88
2022/11/23 07:55:05;;;;;;;19.27;8.18;;;8.30;99.90;;;;;;6137711;23;20024;-87
2022/11/23 07:57:31;;;;;;;19.20;8.15;;;8.30;99.90;;;;;;6161583;23;20017;-88
2022/11/23 07:59:56;;;;;;;17.63;7.63;;;8.30;99.90;;;;;;6137305;23;20021;-87
2022/11/23 08:02:22;;;;;;;19.95;8.55;;;8.30;99.90;;;;;;6163522;23;20094;-88
2022/11/23 08:04:47;;;;;;;16.08;7.28;;;8.40;99.90;;;;;;6139218;23;20536;-87
2022/11/23 08:07:13;;;;;;;14.05;7.57;;;8.30;99.90;;;;;;6165176;23;20017;-88
2022/11/23 08:09:39;;;;;;;18.65;7.53;;;8.30;99.90;;;;;;6163242;23;20442;-87
2022/11/23 08:12:08;;;;;;;15.20;6.85;;;8.40;99.90;;;;;;6138696;23;20098;-88
2022/11/23 08:14:33;;;;;;;18.02;7.55;;;8.40;99.90;;;;;;6138851;23;20017;-87
2022/11/23 08:16:59;;;;;;;17.73;7.28;;;8.30;99.90;;;;;;6139914;22;20019;-87
2022/11/23 08:19:25;;;;;;;18.95;7.38;;;8.50;99.90;;;;;;6164095;23;20053;-88
2022/11/23 08:21:50;;;;;;;15.90;7.05;;;8.50;99.90;;;;;;6138728;23;20458;-87
2022/11/23 08:24:16;;;;;;;12.98;6.50;;;8.40;99.90;;;;;;6162255;23;20028;-88
2022/11/23 08:26:42;;;;;;;15.02;6.57;;;8.40;99.90;;;;;;6138565;23;20021;-87
2022/11/23 08:29:07;;;;;;;17.48;7.85;;;8.30;99.90;;;;;;6138031;23;20021;-88
2022/11/23 08:31:36;;;;;;;13.10;6.60;;;8.40;99.90;;;;;;6140019;23;20091;-89
2022/11/23 08:34:01;;;;;;;16.58;6.53;;;8.40;99.90;;;;;;6164161;23;20039;-88
2022/11/23 08:36:27;;;;;;;13.20;6.45;;;8.40;99.90;;;;;;6163859;23;20052;-88
2022/11/23 08:38:53;;;;;;;16.25;6.32;;;8.40;99.90;;;;;;6140219;23;20013;-88
2022/11/23 08:41:19;;;;;;;17.30;7.07;;;8.50;99.90;;;;;;6140114;23;20013;-87
2022/11/23 08:43:49;;;;;;;15.90;6.47;;;8.60;99.90;;;;;;6163538;23;20536;-88
2022/11/23 08:46:15;;;;;;;12.32;5.65;;;8.60;99.90;;;;;;6139656;23;20031;-88
2022/11/23 08:48:41;;;;;;;13.73;6.20;;;8.60;99.90;;;;;;6164121;23;20017;-88
2022/11/23 08:51:08;;;;;;;15.13;6.20;;;8.60;99.90;;;;;;6139565;22;20028;-87
2022/11/23 08:53:33;;;;;;;18.35;6.35;;;8.70;99.90;;;;;;6163743;23;20327;-87
2022/11/23 08:56:06;;;;;;;13.00;5.93;;;8.70;99.90;;;;;;6139126;23;20028;-86
2022/11/23 08:58:32;;;;;;;17.23;6.25;;;8.70;99.90;;;;;;6162740;23;20017;-88
2022/11/23 09:00:57;;;;;;;14.98;6.07;;;8.70;99.90;;;;;;6140586;23;20225;-88
2022/11/23 09:03:23;;;;;;;15.13;6.38;;;8.70;99.90;;;;;;6138799;23;20024;-88
2022/11/23 09:05:50;;;;;;;15.85;5.85;;;8.80;99.90;;;;;;6139598;23;20081;-87
2022/11/23 09:08:16;;;;;;;11.88;6.03;;;8.80;99.90;;;;;;6163456;22;20015;-88
2022/11/23 09:10:42;;;;;;;15.68;5.95;;;8.80;99.90;;;;;;6139253;23;20020;-88
2022/11/23 09:13:07;;;;;;;19.60;6.20;;;9.00;99.90;;;;;;6161958;23;20017;-88
2022/11/23 09:15:36;;;;;;;20.75;5.97;;;9.10;99.90;;;;;;6138501;23;20077;-88
2022/11/23 09:18:02;;;;;;;14.65;6.18;;;9.20;99.90;;;;;;6163665;23;20408;-88
2022/11/23 09:20:27;;;;;;;15.18;6.30;;;9.50;99.90;;;;;;6139004;23;20025;-88
2022/11/23 09:22:54;;;;;;;12.07;5.93;;;9.50;99.90;;;;;;6138561;23;20017;-88
2022/11/23 09:25:21;;;;;;;17.95;5.85;;;9.60;99.90;;;;;;6138062;23;20373;-88
2022/11/23 09:27:47;;;;;;;13.35;5.82;;;9.70;99.90;;;;;;6138295;23;20147;-88
2022/11/23 09:30:16;;;;;;;16.80;6.22;;;9.70;99.90;;;;;;6163342;23;20166;-88
2022/11/23 09:32:42;;;;;;;9.90;5.13;;;9.70;99.90;;;;;;6164019;23;20687;-88
2022/11/23 09:35:08;;;;;;;13.32;5.80;;;9.60;99.90;;;;;;6139262;23;20054;-88
2022/11/23 09:37:33;;;;;;;14.00;5.57;;;9.60;99.90;;;;;;6164008;23;20017;-89
2022/11/23 09:39:59;;;;;;;11.75;5.40;;;9.40;99.90;;;;;;6139968;23;20333;-87
2022/11/23 09:42:33;;;;;;;9.32;5.05;;;9.40;99.90;;;;;;6139799;23;20021;-88
2022/11/23 09:45:05;;;;;;;13.02;4.82;;;9.40;99.90;;;;;;6138415;23;20021;-89
2022/11/23 09:48:16;;;;;;;12.10;5.30;;;9.20;99.90;;;;;;6164734;23;20092;-86
2022/11/23 09:50:51;;;;;;;12.20;5.20;;;9.30;99.90;;;;;;6164287;23;20552;-88
2022/11/23 09:53:40;;;;;;;14.15;4.85;;;9.20;99.90;;;;;;6137920;23;20092;-89
2022/11/23 09:56:16;;;;;;;15.48;5.45;;;9.30;99.90;;;;;;6140134;23;20043;-88
2022/11/23 09:58:42;;;;;;;15.15;5.53;;;9.20;99.90;;;;;;6138585;23;20053;-87
2022/11/23 10:01:13;;;;;;;15.95;5.10;;;9.20;99.90;;;;;;6138901;23;20025;-88
2022/11/23 10:03:41;;;;;;;15.68;5.10;;;9.30;99.90;;;;;;6139626;23;20532;-88
2022/11/23 10:06:21;;;;;;;16.38;5.75;;;9.30;99.90;;;;;;6139112;23;20036;-88
2022/11/23 10:09:03;;;;;;;12.07;4.75;;;9.30;99.90;;;;;;6138328;23;20017;-88
2022/11/23 10:11:47;;;;;;;10.65;4.80;;;9.30;99.90;;;;;;6138664;23;20066;-89
2022/11/23 10:14:41;;;;;;;9.93;4.60;;;9.40;99.90;;;;;;6163348;23;20017;-87
2022/11/23 10:17:28;;;;;;;12.65;4.60;;;9.30;99.90;;;;;;6138888;23;20013;-88
2022/11/23 10:20:08;;;;;;;11.48;4.20;;;9.40;99.90;;;;;;6163541;23;20093;-88
2022/11/23 10:22:58;;;;;;;14.73;5.30;;;9.50;99.90;;;;;;6138882;23;20016;-88
2022/11/23 10:25:25;;;;;;;9.25;4.25;;;9.40;99.90;;;;;;6137322;23;20017;-88
2022/11/23 10:27:55;;;;;;;17.15;4.45;;;9.40;99.90;;;;;;6162293;23;20261;-88
2022/11/23 10:30:21;;;;;;;12.55;4.10;;;9.40;99.90;;;;;;6139262;23;20059;-89
2022/11/23 10:32:58;;;;;;;14.13;3.85;;;9.40;99.90;;;;;;6138998;23;20057;-88
2022/11/23 10:35:29;;;;;;;9.98;4.13;;;9.30;99.90;;;;;;6139404;23;20016;-88
2022/11/23 10:38:17;;;;;;;15.57;4.22;;;9.20;99.90;;;;;;6137893;23;20028;-88
2022/11/23 10:40:57;;;;;;;12.00;3.95;;;9.30;99.90;;;;;;6138563;23;20562;-88
2022/11/23 10:43:26;;;;;;;13.57;4.05;;;9.30;99.90;;;;;;6162719;23;20073;-87
2022/11/23 10:46:41;;;;;;;14.30;3.90;;;9.30;99.90;;;;;;6139151;23;20040;-87
2022/11/23 10:49:21;;;;;;;14.13;4.13;;;9.30;99.90;;;;;;6144367;23;20101;-87
2022/11/23 10:51:56;;;;;;;10.98;4.07;;;9.30;99.90;;;;;;6138839;23;20021;-88
2022/11/23 10:54:29;;;;;;;12.05;3.88;;;9.40;99.90;;;;;;6139043;23;20016;-88
2022/11/23 10:56:57;;;;;;;13.95;4.53;;;9.40;99.90;;;;;;6139380;23;20020;-87
2022/11/23 10:59:33;;;;;;;10.80;4.10;;;9.40;99.90;;;;;;6138239;23;20017;-87
2022/11/23 11:02:14;;;;;;;15.05;4.10;;;9.40;99.90;;;;;;6265561;22;20029;-88
2022/11/23 11:04:40;;;;;;;11.45;3.30;;;9.40;99.90;;;;;;6138380;23;20362;-87
2022/11/23 11:07:23;;;;;;;9.45;3.38;;;9.50;99.90;;;;;;6137599;23;20541;-87
2022/11/23 11:09:55;;;;;;;12.77;3.50;;;9.60;99.90;;;;;;6137713;23;20088;-87
2022/11/23 11:12:24;;;;;;;11.40;3.40;;;9.80;99.90;;;;;;6138121;23;20467;-87
2022/11/23 11:15:16;;;;;;;7.68;3.20;;;9.80;99.90;;;;;;6164346;23;20112;-88
2022/11/23 11:17:55;;;;;;;12.63;3.40;;;9.80;99.90;;;;;;6163854;22;20009;-87
2022/11/23 11:20:26;;;;;;;9.70;3.05;;;9.80;99.90;;;;;;6139179;23;20048;-88
2022/11/23 11:22:53;;;;;;;12.70;3.42;;;9.80;99.90;;;;;;6137678;23;20017;-87
2022/11/23 11:25:37;;;;;;;10.90;3.53;;;9.60;99.90;;;;;;6162923;23;20021;-88
2022/11/23 11:28:17;;;;;;;13.32;3.97;;;9.80;99.90;;;;;;6162177;23;20403;-87
2022/11/23 11:30:55;;;;;;;12.63;3.58;;;9.90;99.90;;;;;;6163423;23;20009;-87
2022/11/23 11:33:31;;;;;;;12.43;3.58;;;10.00;99.90;;;;;;6162695;23;20017;-89
2022/11/23 11:35:59;;;;;;;14.43;3.63;;;10.10;99.90;;;;;;6163213;23;20021;-87
2022/11/23 11:38:31;;;;;;;12.48;3.33;;;10.20;99.90;;;;;;6137507;23;20028;-88
2022/11/23 11:41:01;;;;;;;13.65;3.08;;;10.60;99.90;;;;;;6138626;23;20017;-88
2022/11/23 11:43:41;;;;;;;10.25;3.10;;;10.40;99.90;;;;;;6137888;23;20368;-88
2022/11/23 11:46:18;;;;;;;8.75;3.10;;;10.30;99.90;;;;;;6138439;23;20350;-88
2022/11/23 11:48:49;;;;;;;10.40;3.03;;;10.20;99.90;;;;;;6163929;23;20009;-88
2022/11/23 11:51:34;;;;;;;10.93;3.20;;;10.20;99.90;;;;;;6162679;23;20346;-88
2022/11/23 11:54:17;;;;;;;9.57;3.22;;;10.10;99.90;;;;;;6137986;23;20051;-88
2022/11/23 11:56:48;;;;;;;11.15;3.40;;;10.00;99.90;;;;;;6137233;23;20017;-88
2022/11/23 11:59:27;;;;;;;8.55;2.95;;;10.00;99.90;;;;;;6138488;23;20033;-88
2022/11/23 12:02:02;;;;;;;13.35;2.95;;;10.10;99.90;;;;;;6136637;23;20367;-88
2022/11/23 12:04:38;;;;;;;;;;;10.00;99.90;;;;;;6138202;23;20535;-88
2022/11/23 12:07:15;;;;;;;11.68;3.05;;;10.00;99.90;;;;;;6138314;23;19920;-87
2022/11/23 12:09:44;;;;;;;13.88;3.63;;;10.00;99.90;;;;;;6137948;23;20433;-87
2022/11/23 12:12:15;;;;;;;12.55;3.30;;;10.20;99.90;;;;;;6138583;23;20673;-88
2022/11/23 12:14:42;;;;;;;9.65;2.60;;;10.00;99.90;;;;;;6137943;23;20013;-88
2022/11/23 12:17:36;;;;;;;9.10;2.58;;;10.10;99.90;;;;;;6136340;23;20420;-87
2022/11/23 12:20:32;;;;;;;8.38;2.35;;;10.10;99.90;;;;;;6137015;23;20017;-87
2022/11/23 12:23:03;;;;;;;9.23;2.90;;;10.10;99.90;;;;;;6136517;23;20141;-87
2022/11/23 12:25:37;;;;;;;9.90;2.78;;;10.20;99.90;;;;;;6136354;23;20150;-88
2022/11/23 12:28:35;;;;;;;14.07;2.92;;;10.20;99.90;;;;;;6161183;23;20037;-87
2022/11/23 12:31:10;;;;;;;10.07;2.85;;;10.30;99.90;;;;;;6163055;22;20020;-87
2022/11/23 12:33:49;;;;;;;10.77;3.20;;;10.20;99.90;;;;;;6137146;23;20017;-87
2022/11/23 12:36:27;;;;;;;8.00;2.45;;;10.30;99.90;;;;;;6138210;23;20062;-87
2022/11/23 12:39:11;;;;;;;7.43;2.30;;;10.30;99.90;;;;;;6136132;23;20404;-87
2022/11/23 12:42:02;;;;;;;8.90;2.55;;;10.30;99.90;;;;;;6160636;23;20302;-88
2022/11/23 12:44:31;;;;;;;9.52;2.53;;;10.30;99.90;;;;;;6136726;23;20408;-88
2022/11/23 12:47:24;;;;;;;8.32;2.28;;;10.30;99.90;;;;;;6162389;23;20393;-87
2022/11/23 12:49:56;;;;;;;8.15;2.03;;;10.40;99.90;;;;;;6160364;23;20016;-88
2022/11/23 12:52:43;;;;;;;8.88;2.95;;;10.40;99.90;;;;;;6163937;23;20028;-87